createdAt,value
2023-09-08T00:00:38.311Z,100.00
2023-09-08T00:01:39.988Z,100.00
2023-09-08T00:02:41.802Z,100.00
2023-09-08T00:03:43.498Z,100.00
2023-09-08T00:04:45.200Z,100.00
2023-09-08T00:05:46.901Z,100.00
2023-09-08T00:06:48.669Z,100.00
2023-09-08T00:07:50.382Z,100.00
2023-09-08T00:08:52.136Z,100.00
2023-09-08T00:09:53.752Z,100.00
2023-09-08T00:10:55.415Z,100.00
2023-09-08T00:11:57.125Z,100.00
2023-09-08T00:12:58.905Z,100.00
2023-09-08T00:14:00.731Z,100.00
2023-09-08T00:15:02.416Z,100.00
2023-09-08T00:16:04.250Z,100.00
2023-09-08T00:17:06.040Z,100.00
2023-09-08T00:18:07.744Z,100.00
2023-09-08T00:19:11.092Z,100.00
2023-09-08T00:20:12.874Z,100.00
2023-09-08T00:21:14.531Z,100.00
2023-09-08T00:22:16.184Z,100.00
2023-09-08T00:23:17.819Z,100.00
2023-09-08T00:24:19.660Z,100.00
2023-09-08T00:25:21.315Z,100.00
2023-09-08T00:26:23.107Z,100.00
2023-09-08T00:27:25.227Z,100.00
2023-09-08T00:28:26.973Z,100.00
2023-09-08T00:29:28.758Z,100.00
2023-09-08T00:30:30.562Z,100.00
2023-09-08T00:31:32.207Z,100.00
2023-09-08T00:32:34.016Z,100.00
2023-09-08T00:33:36.016Z,100.00
2023-09-08T00:34:37.719Z,100.00
2023-09-08T00:35:39.549Z,100.00
2023-09-08T00:36:41.687Z,100.00
2023-09-08T00:37:43.589Z,100.00
2023-09-08T00:38:45.383Z,100.00
2023-09-08T00:39:47.253Z,100.00
2023-09-08T00:40:48.923Z,100.00
2023-09-08T00:41:50.601Z,100.00
2023-09-08T00:42:52.216Z,100.00
2023-09-08T00:43:53.876Z,100.00
2023-09-08T00:44:55.538Z,100.00
2023-09-08T00:45:57.675Z,100.00
2023-09-08T00:46:59.649Z,100.00
2023-09-08T00:48:01.477Z,100.00
2023-09-08T00:49:03.428Z,100.00
2023-09-08T00:50:06.016Z,100.00
2023-09-08T00:51:09.302Z,100.00
2023-09-08T00:52:11.279Z,100.00
2023-09-08T00:53:13.712Z,100.00
2023-09-08T00:54:15.966Z,100.00
2023-09-08T00:55:18.590Z,100.00
2023-09-08T00:56:20.452Z,100.00
2023-09-08T00:57:22.153Z,100.00
2023-09-08T00:58:23.912Z,100.00
2023-09-08T00:59:26.150Z,100.00
2023-09-08T01:00:27.990Z,100.00
2023-09-08T01:01:30.036Z,100.00
2023-09-08T01:02:31.769Z,100.00
2023-09-08T01:03:33.516Z,100.00
2023-09-08T01:04:36.529Z,100.00
2023-09-08T01:05:40.187Z,100.00
2023-09-08T01:06:43.360Z,100.00
2023-09-08T01:07:45.932Z,100.00
2023-09-08T01:08:48.051Z,100.00
2023-09-08T01:09:50.142Z,100.00
2023-09-08T01:10:51.996Z,100.00
2023-09-08T01:11:53.724Z,100.00
2023-09-08T01:12:55.394Z,100.00
2023-09-08T01:13:57.019Z,100.00
2023-09-08T01:14:58.708Z,100.00
2023-09-08T01:16:00.491Z,100.00
2023-09-08T01:17:02.260Z,100.00
2023-09-08T01:18:05.905Z,100.00
2023-09-08T01:19:14.022Z,100.00
2023-09-08T01:20:28.439Z,100.00
2023-09-08T01:21:59.234Z,100.00
2023-09-08T01:23:16.151Z,100.00
2023-09-08T01:24:39.232Z,100.00
2023-09-08T01:26:18.248Z,100.00
2023-09-08T01:27:21.031Z,100.00
2023-09-08T01:28:23.486Z,100.00
2023-09-08T01:29:26.485Z,100.00
2023-09-08T01:30:30.994Z,100.00
2023-09-08T01:31:32.826Z,100.00
2023-09-08T01:32:35.645Z,100.00
2023-09-08T01:33:38.013Z,100.00
2023-09-08T01:34:39.900Z,100.00
2023-09-08T01:35:41.648Z,100.00
2023-09-08T01:36:43.693Z,100.00
2023-09-08T01:37:49.469Z,100.00
2023-09-08T01:38:51.294Z,100.00
2023-09-08T01:39:53.151Z,100.00
2023-09-08T01:40:55.799Z,100.00
2023-09-08T01:41:57.690Z,100.00
2023-09-08T01:43:00.023Z,100.00
2023-09-08T01:44:02.087Z,100.00
2023-09-08T01:45:04.112Z,100.00
2023-09-08T01:46:06.024Z,100.00
2023-09-08T01:47:07.845Z,100.00
2023-09-08T01:48:09.891Z,100.00
2023-09-08T01:49:11.603Z,100.00
2023-09-08T01:50:13.319Z,100.00
2023-09-08T01:51:14.966Z,100.00
2023-09-08T01:52:16.606Z,100.00
2023-09-08T01:53:18.244Z,100.00
2023-09-08T01:54:19.901Z,100.00
2023-09-08T01:55:21.594Z,100.00
2023-09-08T01:56:23.230Z,100.00
2023-09-08T01:57:25.212Z,100.00
2023-09-08T01:58:26.860Z,100.00
2023-09-08T01:59:28.563Z,100.00
2023-09-08T02:00:30.288Z,100.00
2023-09-08T02:01:32.028Z,100.00
2023-09-08T02:02:33.733Z,100.00
2023-09-08T02:03:35.708Z,100.00
2023-09-08T02:04:37.567Z,100.00
2023-09-08T02:05:41.080Z,100.00
2023-09-08T02:06:42.789Z,100.00
2023-09-08T02:07:44.473Z,100.00
2023-09-08T02:08:46.201Z,100.00
2023-09-08T02:09:47.846Z,100.00
2023-09-08T02:10:49.542Z,100.00
2023-09-08T02:11:51.186Z,100.00
2023-09-08T02:12:53.655Z,100.00
2023-09-08T02:13:58.043Z,100.00
2023-09-08T02:15:00.280Z,100.00
2023-09-08T02:16:02.183Z,100.00
2023-09-08T02:17:04.286Z,100.00
2023-09-08T02:18:08.067Z,100.00
2023-09-08T02:19:09.761Z,100.00
2023-09-08T02:20:11.926Z,100.00
2023-09-08T02:21:13.635Z,100.00
2023-09-08T02:22:15.315Z,100.00
2023-09-08T02:23:16.998Z,100.00
2023-09-08T02:24:18.687Z,100.00
2023-09-08T02:25:20.344Z,100.00
2023-09-08T02:26:22.012Z,100.00
2023-09-08T02:27:23.669Z,100.00
2023-09-08T02:28:26.677Z,100.00
2023-09-08T02:29:28.691Z,100.00
2023-09-08T02:30:30.678Z,100.00
2023-09-08T02:31:32.616Z,100.00
2023-09-08T02:32:34.901Z,100.00
2023-09-08T02:33:36.883Z,100.00
2023-09-08T02:34:38.709Z,100.00
2023-09-08T02:35:41.748Z,100.00
2023-09-08T02:36:44.312Z,100.00
2023-09-08T02:37:46.083Z,100.00
2023-09-08T02:38:48.234Z,100.00
2023-09-08T02:39:49.909Z,100.00
2023-09-08T02:40:51.601Z,100.00
2023-09-08T02:41:53.297Z,100.00
2023-09-08T02:42:54.950Z,100.00
2023-09-08T02:43:56.811Z,100.00
2023-09-08T02:44:58.898Z,100.00
2023-09-08T02:46:00.710Z,100.00
2023-09-08T02:47:02.544Z,100.00
2023-09-08T02:48:04.735Z,100.00
2023-09-08T02:49:07.241Z,100.00
2023-09-08T02:50:09.399Z,100.00
2023-09-08T02:51:11.050Z,100.00
2023-09-08T02:52:12.682Z,100.00
2023-09-08T02:53:14.429Z,100.00
2023-09-08T02:54:16.150Z,100.00
2023-09-08T02:55:17.788Z,100.00
2023-09-08T02:56:19.677Z,100.00
2023-09-08T02:57:21.399Z,100.00
2023-09-08T02:58:23.414Z,100.00
2023-09-08T02:59:25.058Z,100.00
2023-09-08T03:00:26.708Z,100.00
2023-09-08T03:01:28.414Z,100.00
2023-09-08T03:02:31.768Z,100.00
2023-09-08T03:03:33.753Z,100.00
2023-09-08T03:04:35.547Z,100.00
2023-09-08T03:05:37.450Z,100.00
2023-09-08T03:06:39.119Z,100.00
2023-09-08T03:07:40.800Z,100.00
2023-09-08T03:08:42.831Z,100.00
2023-09-08T03:09:44.872Z,100.00
2023-09-08T03:10:46.496Z,100.00
2023-09-08T03:11:48.222Z,100.00
2023-09-08T03:12:49.925Z,100.00
2023-09-08T03:13:52.110Z,100.00
2023-09-08T03:14:53.779Z,100.00
2023-09-08T03:15:56.405Z,100.00
2023-09-08T03:16:58.115Z,100.00
2023-09-08T03:18:00.658Z,100.00
2023-09-08T03:19:02.371Z,100.00
2023-09-08T03:20:04.300Z,100.00
2023-09-08T03:21:07.096Z,100.00
2023-09-08T03:22:08.718Z,100.00
2023-09-08T03:23:10.356Z,100.00
2023-09-08T03:24:12.058Z,100.00
2023-09-08T03:25:17.156Z,100.00
2023-09-08T03:26:18.880Z,100.00
2023-09-08T03:27:20.556Z,100.00
2023-09-08T03:28:22.240Z,100.00
2023-09-08T03:29:23.871Z,100.00
2023-09-08T03:30:25.599Z,100.00
2023-09-08T03:31:27.545Z,100.00
2023-09-08T03:32:29.898Z,100.00
2023-09-08T03:33:32.242Z,100.00
2023-09-08T03:34:34.717Z,100.00
2023-09-08T03:35:36.578Z,100.00
2023-09-08T03:36:38.482Z,100.00
2023-09-08T03:37:40.222Z,100.00
2023-09-08T03:38:41.867Z,100.00
2023-09-08T03:39:43.556Z,100.00
2023-09-08T03:40:45.397Z,100.00
2023-09-08T03:41:47.147Z,100.00
2023-09-08T03:42:48.893Z,100.00
2023-09-08T03:43:50.594Z,100.00
2023-09-08T03:44:52.886Z,100.00
2023-09-08T03:45:54.849Z,100.00
2023-09-08T03:46:57.515Z,100.00
2023-09-08T03:47:59.218Z,100.00
2023-09-08T03:49:00.857Z,100.00
2023-09-08T03:50:02.812Z,100.00
2023-09-08T03:51:04.576Z,100.00
2023-09-08T03:52:06.404Z,100.00
2023-09-08T03:53:08.088Z,100.00
2023-09-08T03:54:10.121Z,100.00
2023-09-08T03:55:11.747Z,100.00
2023-09-08T03:56:13.459Z,100.00
2023-09-08T03:57:15.402Z,100.00
2023-09-08T03:58:17.106Z,100.00
2023-09-08T03:59:18.873Z,100.00
2023-09-08T04:00:20.647Z,100.00
2023-09-08T04:01:22.531Z,100.00
2023-09-08T04:02:24.298Z,100.00
2023-09-08T04:03:26.133Z,100.00
2023-09-08T04:04:27.875Z,100.00
2023-09-08T04:05:29.679Z,100.00
2023-09-08T04:06:31.619Z,100.00
2023-09-08T04:07:33.396Z,100.00
2023-09-08T04:08:35.078Z,100.00
2023-09-08T04:09:37.146Z,100.00
2023-09-08T04:10:38.779Z,100.00
2023-09-08T04:11:40.493Z,100.00
2023-09-08T04:12:42.450Z,100.00
2023-09-08T04:13:44.124Z,100.00
2023-09-08T04:14:45.757Z,100.00
2023-09-08T04:15:47.546Z,100.00
2023-09-08T04:16:49.296Z,100.00
2023-09-08T04:17:51.065Z,100.00
2023-09-08T04:18:55.096Z,100.00
2023-09-08T04:19:58.348Z,100.00
2023-09-08T04:21:00.204Z,100.00
2023-09-08T04:22:01.920Z,100.00
2023-09-08T04:23:04.188Z,100.00
2023-09-08T04:24:06.307Z,100.00
2023-09-08T04:25:08.411Z,100.00
2023-09-08T04:26:10.105Z,100.00
2023-09-08T04:27:14.580Z,100.00
2023-09-08T04:28:17.384Z,100.00
2023-09-08T04:29:19.592Z,100.00
2023-09-08T04:30:21.360Z,100.00
2023-09-08T04:31:23.240Z,100.00
2023-09-08T04:32:25.092Z,100.00
2023-09-08T04:33:27.163Z,100.00
2023-09-08T04:34:28.934Z,100.00
2023-09-08T04:35:30.672Z,100.00
2023-09-08T04:36:32.399Z,100.00
2023-09-08T04:37:34.049Z,100.00
2023-09-08T04:38:35.708Z,100.00
2023-09-08T04:39:37.499Z,100.00
2023-09-08T04:40:42.164Z,100.00
2023-09-08T04:41:44.451Z,100.00
2023-09-08T04:42:46.220Z,100.00
2023-09-08T04:43:48.063Z,100.00
2023-09-08T04:44:50.062Z,100.00
2023-09-08T04:45:51.781Z,100.00
2023-09-08T04:46:54.511Z,100.00
2023-09-08T04:47:56.225Z,100.00
2023-09-08T04:48:57.864Z,100.00
2023-09-08T04:49:59.884Z,100.00
2023-09-08T04:51:01.573Z,100.00
2023-09-08T04:52:04.098Z,100.00
2023-09-08T04:53:06.183Z,100.00
2023-09-08T04:54:07.843Z,100.00
2023-09-08T04:55:10.555Z,100.00
2023-09-08T04:56:14.246Z,100.00
2023-09-08T04:57:23.392Z,100.00
2023-09-08T04:58:27.886Z,100.00
2023-09-08T04:59:30.405Z,100.00
2023-09-08T05:00:32.140Z,100.00
2023-09-08T05:01:34.080Z,100.00
2023-09-08T05:02:37.194Z,100.00
2023-09-08T05:03:40.186Z,100.00
2023-09-08T05:04:43.104Z,100.00
2023-09-08T05:05:46.156Z,100.00
2023-09-08T05:06:48.632Z,100.00
2023-09-08T05:07:52.293Z,100.00
2023-09-08T05:08:54.843Z,100.00
2023-09-08T05:09:58.905Z,100.00
2023-09-08T05:11:04.185Z,100.00
2023-09-08T05:12:06.993Z,100.00
2023-09-08T05:13:20.509Z,100.00
2023-09-08T05:14:31.785Z,100.00
2023-09-08T05:15:35.491Z,100.00
2023-09-08T05:16:38.699Z,100.00
2023-09-08T05:17:41.930Z,100.00
2023-09-08T05:18:43.949Z,100.00
2023-09-08T05:19:45.621Z,100.00
2023-09-08T05:20:48.889Z,100.00
2023-09-08T05:21:55.253Z,100.00
2023-09-08T05:22:57.085Z,100.00
2023-09-08T05:23:59.096Z,100.00
2023-09-08T05:25:01.461Z,100.00
2023-09-08T05:26:03.242Z,100.00
2023-09-08T05:27:05.363Z,100.00
2023-09-08T05:28:07.269Z,100.00
2023-09-08T05:29:09.716Z,100.00
2023-09-08T05:30:11.698Z,100.00
2023-09-08T05:31:13.600Z,100.00
2023-09-08T05:32:16.016Z,100.00
2023-09-08T05:33:17.806Z,100.00
2023-09-08T05:34:19.546Z,100.00
2023-09-08T05:35:21.207Z,100.00
2023-09-08T05:36:24.314Z,100.00
2023-09-08T05:37:26.763Z,100.00
2023-09-08T05:38:28.384Z,100.00
2023-09-08T05:39:30.009Z,100.00
2023-09-08T05:40:31.938Z,100.00
2023-09-08T05:41:33.588Z,100.00
2023-09-08T05:42:36.020Z,100.00
2023-09-08T05:43:37.907Z,100.00
2023-09-08T05:44:39.650Z,100.00
2023-09-08T05:45:41.569Z,100.00
2023-09-08T05:46:43.287Z,100.00
2023-09-08T05:47:45.055Z,100.00
2023-09-08T05:48:47.080Z,100.00
2023-09-08T05:49:48.881Z,100.00
2023-09-08T05:50:50.641Z,100.00
2023-09-08T05:51:52.988Z,100.00
2023-09-08T05:52:54.743Z,100.00
2023-09-08T05:53:57.604Z,100.00
2023-09-08T05:55:01.208Z,100.00
2023-09-08T05:56:05.287Z,100.00
2023-09-08T05:57:07.376Z,100.00
2023-09-08T05:58:09.075Z,100.00
2023-09-08T05:59:10.690Z,100.00
2023-09-08T06:00:12.834Z,100.00
2023-09-08T06:01:22.730Z,100.00
2023-09-08T06:02:25.227Z,100.00
2023-09-08T06:03:27.385Z,100.00
2023-09-08T06:04:29.233Z,100.00
2023-09-08T06:05:31.075Z,100.00
2023-09-08T06:06:32.714Z,100.00
2023-09-08T06:07:37.146Z,100.00
2023-09-08T06:08:40.667Z,100.00
2023-09-08T06:09:42.594Z,100.00
2023-09-08T06:10:44.244Z,100.00
2023-09-08T06:11:46.004Z,100.00
2023-09-08T06:12:47.972Z,100.00
2023-09-08T06:13:49.860Z,99.49
2023-09-08T06:14:51.620Z,100.00
2023-09-08T06:15:53.323Z,97.69
2023-09-08T06:16:55.114Z,96.49
2023-09-08T06:17:57.461Z,97.33
2023-09-08T06:18:59.164Z,98.14
2023-09-08T06:20:01.333Z,98.49
2023-09-08T06:21:03.105Z,98.59
2023-09-08T06:22:04.837Z,98.16
2023-09-08T06:23:06.669Z,96.86
2023-09-08T06:24:08.645Z,93.35
2023-09-08T06:25:11.286Z,93.14
2023-09-08T06:26:13.821Z,92.85
2023-09-08T06:27:16.215Z,92.21
2023-09-08T06:28:18.274Z,91.57
2023-09-08T06:29:19.952Z,90.64
2023-09-08T06:30:21.704Z,89.06
2023-09-08T06:31:24.308Z,88.62
2023-09-08T06:32:26.078Z,87.58
2023-09-08T06:33:27.960Z,86.68
2023-09-08T06:34:30.451Z,86.12
2023-09-08T06:35:32.790Z,85.31
2023-09-08T06:36:34.634Z,85.18
2023-09-08T06:37:37.862Z,84.66
2023-09-08T06:38:39.748Z,84.28
2023-09-08T06:39:41.441Z,83.54
2023-09-08T06:40:43.365Z,82.66
2023-09-08T06:41:45.040Z,82.27
2023-09-08T06:42:49.759Z,81.55
2023-09-08T06:44:01.050Z,83.28
2023-09-08T06:45:04.176Z,83.23
2023-09-08T06:46:05.926Z,83.13
2023-09-08T06:47:08.601Z,82.93
2023-09-08T06:48:10.868Z,82.69
2023-09-08T06:49:12.578Z,82.47
2023-09-08T06:50:14.307Z,82.55
2023-09-08T06:51:16.000Z,82.98
2023-09-08T06:52:18.999Z,83.32
2023-09-08T06:53:20.728Z,85.51
2023-09-08T06:54:22.814Z,86.26
2023-09-08T06:55:24.556Z,86.34
2023-09-08T06:56:26.252Z,86.53
2023-09-08T06:57:28.262Z,85.42
2023-09-08T06:58:29.964Z,84.69
2023-09-08T06:59:32.241Z,84.96
2023-09-08T07:00:34.543Z,85.85
2023-09-08T07:01:37.976Z,85.64
2023-09-08T07:02:40.973Z,85.43
2023-09-08T07:03:43.081Z,86.17
2023-09-08T07:04:45.983Z,86.79
2023-09-08T07:05:47.874Z,87.39
2023-09-08T07:06:49.878Z,88.00
2023-09-08T07:07:51.723Z,87.91
2023-09-08T07:08:53.370Z,89.42
2023-09-08T07:09:56.263Z,91.08
2023-09-08T07:10:58.040Z,91.34
2023-09-08T07:11:59.819Z,91.04
2023-09-08T07:13:01.577Z,91.22
2023-09-08T07:14:03.507Z,90.90
2023-09-08T07:15:05.667Z,91.13
2023-09-08T07:16:08.026Z,90.84
2023-09-08T07:17:10.618Z,91.87
2023-09-08T07:18:12.398Z,92.70
2023-09-08T07:19:14.135Z,93.68
2023-09-08T07:20:15.928Z,93.68
2023-09-08T07:21:17.848Z,94.13
2023-09-08T07:22:20.187Z,95.06
2023-09-08T07:23:21.882Z,95.52
2023-09-08T07:24:23.655Z,95.19
2023-09-08T07:25:25.355Z,95.44
2023-09-08T07:26:27.147Z,95.24
2023-09-08T07:27:29.153Z,94.64
2023-09-08T07:28:31.325Z,94.45
2023-09-08T07:29:36.858Z,94.24
2023-09-08T07:30:38.590Z,93.76
2023-09-08T07:31:40.452Z,93.52
2023-09-08T07:32:42.386Z,94.84
2023-09-08T07:33:44.155Z,94.57
2023-09-08T07:34:46.335Z,94.82
2023-09-08T07:35:48.026Z,95.09
2023-09-08T07:36:49.880Z,95.09
2023-09-08T07:37:51.664Z,95.23
2023-09-08T07:38:53.480Z,95.81
2023-09-08T07:39:55.662Z,95.66
2023-09-08T07:40:57.298Z,96.01
2023-09-08T07:42:01.544Z,95.83
2023-09-08T07:43:03.833Z,96.12
2023-09-08T07:44:06.006Z,95.28
2023-09-08T07:45:08.654Z,95.72
2023-09-08T07:46:10.344Z,95.23
2023-09-08T07:47:12.194Z,94.64
2023-09-08T07:48:13.894Z,95.35
2023-09-08T07:49:16.017Z,94.04
2023-09-08T07:50:28.715Z,92.77
2023-09-08T07:51:30.379Z,94.11
2023-09-08T07:52:32.197Z,94.11
2023-09-08T07:53:33.867Z,94.23
2023-09-08T07:54:35.699Z,94.67
2023-09-08T07:55:37.405Z,95.40
2023-09-08T07:56:39.104Z,95.47
2023-09-08T07:57:43.451Z,95.06
2023-09-08T07:58:45.192Z,94.86
2023-09-08T07:59:46.830Z,94.59
2023-09-08T08:00:48.803Z,94.90
2023-09-08T08:01:50.484Z,95.47
2023-09-08T08:02:55.291Z,95.41
2023-09-08T08:03:57.038Z,95.84
2023-09-08T08:04:59.084Z,96.62
2023-09-08T08:06:00.745Z,96.35
2023-09-08T08:07:02.489Z,95.38
2023-09-08T08:08:04.388Z,94.43
2023-09-08T08:09:06.286Z,93.69
2023-09-08T08:10:08.446Z,93.28
2023-09-08T08:11:14.765Z,94.92
2023-09-08T08:12:16.606Z,94.53
2023-09-08T08:13:18.311Z,94.19
2023-09-08T08:14:19.939Z,94.11
2023-09-08T08:15:22.167Z,93.75
2023-09-08T08:16:24.612Z,92.64
2023-09-08T08:17:26.546Z,92.54
2023-09-08T08:18:28.323Z,91.80
2023-09-08T08:19:30.193Z,91.22
2023-09-08T08:20:31.883Z,91.00
2023-09-08T08:21:33.643Z,91.69
2023-09-08T08:22:35.517Z,92.12
2023-09-08T08:23:37.179Z,92.33
2023-09-08T08:24:39.099Z,91.87
2023-09-08T08:25:40.743Z,91.95
2023-09-08T08:26:42.394Z,91.85
2023-09-08T08:27:44.092Z,92.15
2023-09-08T08:28:46.102Z,92.36
2023-09-08T08:29:47.723Z,91.86
2023-09-08T08:30:49.510Z,91.37
2023-09-08T08:31:51.203Z,92.13
2023-09-08T08:32:52.941Z,92.38
2023-09-08T08:33:54.721Z,91.84
2023-09-08T08:34:56.687Z,92.27
2023-09-08T08:35:58.387Z,91.74
2023-09-08T08:37:00.008Z,92.00
2023-09-08T08:38:01.817Z,92.23
2023-09-08T08:39:03.622Z,90.95
2023-09-08T08:40:05.913Z,90.58
2023-09-08T08:41:07.601Z,91.23
2023-09-08T08:42:10.349Z,90.50
2023-09-08T08:43:12.377Z,90.70
2023-09-08T08:44:16.486Z,89.68
2023-09-08T08:45:20.157Z,88.51
2023-09-08T08:46:23.419Z,88.81
2023-09-08T08:47:26.824Z,89.05
2023-09-08T08:48:30.709Z,89.57
2023-09-08T08:49:33.641Z,89.52
2023-09-08T08:50:36.937Z,89.70
2023-09-08T08:51:40.443Z,88.52
2023-09-08T08:52:42.313Z,88.63
2023-09-08T08:53:44.043Z,88.94
2023-09-08T08:54:46.545Z,89.53
2023-09-08T08:55:50.294Z,89.68
2023-09-08T08:56:52.350Z,90.20
2023-09-08T08:57:54.220Z,88.96
2023-09-08T08:58:57.589Z,89.33
2023-09-08T09:00:01.196Z,90.00
2023-09-08T09:01:04.376Z,88.83
2023-09-08T09:02:06.525Z,88.93
2023-09-08T09:03:15.333Z,89.02
2023-09-08T09:04:18.659Z,88.76
2023-09-08T09:05:20.515Z,88.78
2023-09-08T09:06:22.404Z,88.96
2023-09-08T09:07:24.936Z,88.91
2023-09-08T09:08:27.986Z,88.86
2023-09-08T09:09:29.970Z,88.88
2023-09-08T09:10:32.678Z,88.38
2023-09-08T09:11:34.350Z,88.00
2023-09-08T09:12:39.245Z,87.00
2023-09-08T09:13:40.879Z,84.12
2023-09-08T09:14:48.263Z,82.90
2023-09-08T09:15:52.298Z,83.94
2023-09-08T09:16:57.269Z,85.32
2023-09-08T09:18:06.912Z,85.44
2023-09-08T09:19:09.153Z,85.10
2023-09-08T09:20:17.936Z,85.03
2023-09-08T09:21:19.612Z,85.27
2023-09-08T09:22:22.217Z,84.82
2023-09-08T09:23:30.049Z,84.55
2023-09-08T09:24:33.504Z,83.87
2023-09-08T09:25:35.302Z,84.30
2023-09-08T09:26:37.159Z,84.30
2023-09-08T09:27:38.830Z,84.44
2023-09-08T09:28:49.723Z,83.57
2023-09-08T09:29:51.528Z,82.95
2023-09-08T09:30:54.141Z,82.93
2023-09-08T09:32:05.258Z,82.76
2023-09-08T09:33:07.133Z,82.73
2023-09-08T09:34:08.854Z,82.65
2023-09-08T09:35:10.581Z,82.00
2023-09-08T09:36:21.756Z,80.92
2023-09-08T09:37:24.403Z,80.81
2023-09-08T09:38:27.593Z,79.78
2023-09-08T09:39:29.259Z,79.41
2023-09-08T09:40:30.935Z,78.99
2023-09-08T09:41:32.651Z,79.41
2023-09-08T09:42:34.465Z,79.46
2023-09-08T09:43:36.298Z,79.39
2023-09-08T09:44:38.027Z,79.06
2023-09-08T09:45:40.934Z,79.32
2023-09-08T09:46:46.637Z,79.21
2023-09-08T09:47:48.944Z,78.19
2023-09-08T09:48:56.985Z,78.16
2023-09-08T09:49:58.686Z,77.90
2023-09-08T09:51:01.578Z,78.57
2023-09-08T09:52:03.932Z,78.16
2023-09-08T09:53:11.293Z,78.68
2023-09-08T09:54:13.219Z,78.91
2023-09-08T09:55:14.850Z,78.13
2023-09-08T09:56:18.380Z,77.48
2023-09-08T09:57:22.301Z,77.66
2023-09-08T09:58:26.001Z,75.66
2023-09-08T09:59:28.148Z,76.71
2023-09-08T10:00:29.861Z,76.51
2023-09-08T10:01:33.229Z,75.26
2023-09-08T10:02:35.630Z,75.30
2023-09-08T10:03:37.447Z,75.58
2023-09-08T10:04:41.581Z,74.16
2023-09-08T10:05:43.379Z,74.46
2023-09-08T10:06:46.485Z,75.80
2023-09-08T10:07:51.464Z,76.75
2023-09-08T10:08:55.208Z,76.73
2023-09-08T10:09:56.880Z,76.13
2023-09-08T10:11:00.315Z,76.30
2023-09-08T10:12:05.623Z,76.06
2023-09-08T10:13:08.463Z,75.77
2023-09-08T10:14:12.177Z,75.10
2023-09-08T10:15:19.339Z,74.50
2023-09-08T10:16:22.283Z,75.10
2023-09-08T10:17:28.840Z,74.97
2023-09-08T10:18:32.257Z,75.57
2023-09-08T10:19:35.992Z,76.03
2023-09-08T10:20:39.038Z,76.14
2023-09-08T10:21:42.888Z,76.39
2023-09-08T10:22:45.874Z,75.91
2023-09-08T10:23:58.358Z,76.09
2023-09-08T10:25:05.103Z,74.84
2023-09-08T10:26:11.012Z,75.02
2023-09-08T10:27:13.327Z,75.19
2023-09-08T10:28:16.960Z,75.49
2023-09-08T10:29:19.454Z,74.72
2023-09-08T10:30:22.471Z,74.05
2023-09-08T10:31:29.192Z,73.77
2023-09-08T10:32:32.598Z,73.20
2023-09-08T10:33:36.978Z,74.28
2023-09-08T10:34:40.045Z,73.72
2023-09-08T10:35:43.369Z,73.70
2023-09-08T10:36:45.185Z,74.22
2023-09-08T10:37:46.845Z,74.09
2023-09-08T10:38:48.520Z,73.77
2023-09-08T10:39:50.270Z,73.98
2023-09-08T10:40:52.972Z,74.04
2023-09-08T10:42:17.296Z,71.92
2023-09-08T10:43:20.080Z,72.97
2023-09-08T10:44:23.353Z,73.24
2023-09-08T10:45:26.647Z,72.34
2023-09-08T10:46:29.960Z,72.25
2023-09-08T10:47:48.164Z,72.63
2023-09-08T10:48:49.911Z,72.55
2023-09-08T10:49:52.399Z,71.99
2023-09-08T10:50:54.044Z,72.07
2023-09-08T10:52:08.919Z,72.54
2023-09-08T10:53:13.146Z,72.89
2023-09-08T10:54:45.066Z,72.15
2023-09-08T10:56:15.808Z,72.04
2023-09-08T10:57:19.912Z,71.78
2023-09-08T10:58:32.099Z,70.65
2023-09-08T10:59:39.209Z,70.67
2023-09-08T11:00:45.906Z,70.22
2023-09-08T11:01:48.794Z,70.54
2023-09-08T11:02:51.239Z,70.90
2023-09-08T11:03:53.720Z,70.97
2023-09-08T11:04:56.207Z,71.09
2023-09-08T11:05:58.469Z,71.12
2023-09-08T11:07:00.220Z,71.42
2023-09-08T11:08:01.868Z,71.32
2023-09-08T11:09:09.447Z,71.12
2023-09-08T11:10:12.612Z,71.21
2023-09-08T11:11:16.114Z,71.67
2023-09-08T11:12:18.001Z,71.27
2023-09-08T11:13:19.622Z,71.35
2023-09-08T11:14:21.333Z,70.83
2023-09-08T11:15:23.394Z,70.84
2023-09-08T11:16:25.441Z,70.18
2023-09-08T11:17:27.934Z,69.61
2023-09-08T11:18:30.945Z,69.38
2023-09-08T11:19:49.362Z,69.63
2023-09-08T11:20:53.917Z,69.27
2023-09-08T11:21:56.632Z,68.96
2023-09-08T11:22:59.070Z,69.23
2023-09-08T11:24:00.772Z,70.36
2023-09-08T11:25:03.130Z,70.52
2023-09-08T11:26:05.119Z,70.89
2023-09-08T11:27:06.788Z,70.92
2023-09-08T11:28:08.527Z,72.15
2023-09-08T11:29:10.968Z,72.32
2023-09-08T11:30:13.648Z,70.44
2023-09-08T11:31:15.381Z,69.81
2023-09-08T11:32:17.122Z,70.28
2023-09-08T11:33:20.702Z,71.49
2023-09-08T11:34:22.416Z,71.07
2023-09-08T11:35:27.904Z,72.28
2023-09-08T11:36:30.540Z,71.90
2023-09-08T11:37:32.207Z,71.20
2023-09-08T11:38:34.051Z,71.15
2023-09-08T11:39:42.110Z,70.39
2023-09-08T11:40:43.932Z,70.04
2023-09-08T11:41:46.116Z,69.74
2023-09-08T11:42:47.854Z,69.88
2023-09-08T11:43:50.713Z,70.08
2023-09-08T11:44:52.389Z,69.13
2023-09-08T11:45:54.296Z,68.54
2023-09-08T11:46:56.269Z,68.73
2023-09-08T11:47:58.548Z,68.88
2023-09-08T11:49:00.486Z,68.27
2023-09-08T11:50:03.560Z,67.87
2023-09-08T11:51:08.108Z,66.64
2023-09-08T11:52:09.819Z,66.40
2023-09-08T11:53:11.625Z,66.63
2023-09-08T11:54:13.555Z,64.87
2023-09-08T11:55:16.066Z,64.73
2023-09-08T11:56:18.153Z,64.24
2023-09-08T11:57:20.684Z,64.88
2023-09-08T11:58:23.489Z,62.80
2023-09-08T11:59:26.553Z,62.99
2023-09-08T12:00:29.342Z,62.92
2023-09-08T12:01:31.129Z,65.32
2023-09-08T12:02:36.507Z,65.04
2023-09-08T12:03:53.131Z,61.01
2023-09-08T12:04:55.181Z,60.13
2023-09-08T12:05:56.903Z,58.43
2023-09-08T12:06:58.720Z,59.10
2023-09-08T12:08:00.430Z,60.78
2023-09-08T12:09:02.404Z,60.89
2023-09-08T12:10:09.201Z,60.97
2023-09-08T12:11:11.027Z,61.05
2023-09-08T12:12:13.752Z,61.16
2023-09-08T12:13:22.062Z,61.58
2023-09-08T12:14:23.744Z,62.23
2023-09-08T12:15:39.688Z,61.97
2023-09-08T12:16:42.860Z,61.74
2023-09-08T12:17:50.923Z,61.46
2023-09-08T12:18:52.649Z,60.87
2023-09-08T12:19:54.582Z,60.33
2023-09-08T12:21:05.175Z,60.56
2023-09-08T12:22:07.978Z,59.94
2023-09-08T12:23:23.267Z,58.82
2023-09-08T12:24:47.545Z,60.32
2023-09-08T12:25:51.638Z,59.89
2023-09-08T12:26:53.340Z,61.04
2023-09-08T12:27:55.652Z,60.91
2023-09-08T12:28:57.371Z,61.82
2023-09-08T12:30:01.150Z,61.90
2023-09-08T12:31:02.883Z,62.11
2023-09-08T12:32:04.959Z,62.90
2023-09-08T12:33:06.775Z,63.35
2023-09-08T12:34:08.503Z,63.44
2023-09-08T12:35:10.180Z,63.88
2023-09-08T12:36:19.447Z,63.73
2023-09-08T12:37:25.288Z,63.68
2023-09-08T12:38:32.089Z,64.21
2023-09-08T12:39:33.771Z,64.45
2023-09-08T12:40:38.377Z,64.44
2023-09-08T12:41:40.042Z,64.46
2023-09-08T12:42:42.838Z,64.37
2023-09-08T12:43:51.398Z,64.20
2023-09-08T12:44:53.068Z,63.16
2023-09-08T12:45:57.360Z,62.58
2023-09-08T12:46:59.371Z,62.40
2023-09-08T12:48:02.225Z,62.89
2023-09-08T12:49:03.907Z,63.11
2023-09-08T12:50:06.032Z,62.58
2023-09-08T12:51:07.684Z,62.72
2023-09-08T12:52:09.304Z,63.65
2023-09-08T12:53:10.983Z,63.28
2023-09-08T12:54:12.678Z,63.56
2023-09-08T12:55:14.272Z,62.57
2023-09-08T12:56:15.878Z,62.81
2023-09-08T12:57:17.540Z,62.58
2023-09-08T12:58:19.213Z,63.29
2023-09-08T12:59:20.837Z,63.32
2023-09-08T13:00:23.320Z,61.54
2023-09-08T13:01:25.010Z,61.80
2023-09-08T13:02:26.620Z,60.95
2023-09-08T13:03:28.218Z,60.41
2023-09-08T13:04:29.838Z,60.91
2023-09-08T13:05:31.688Z,60.45
2023-09-08T13:06:33.347Z,60.18
2023-09-08T13:07:35.481Z,60.74
2023-09-08T13:08:37.377Z,61.47
2023-09-08T13:09:39.281Z,62.39
2023-09-08T13:10:40.964Z,62.59
2023-09-08T13:11:43.581Z,62.85
2023-09-08T13:12:46.432Z,62.37
2023-09-08T13:13:48.232Z,61.26
2023-09-08T13:14:49.861Z,61.25
2023-09-08T13:15:51.689Z,61.81
2023-09-08T13:16:53.414Z,58.47
2023-09-08T13:17:55.070Z,58.41
2023-09-08T13:18:56.796Z,57.84